Time;durP1;ratioP1;P1;durP2;ratioP2;P2;SDS_P1;SDS_P2;PMS_P1;PMS_P2;Temp;Humidity;BMP_temperature;BMP_pressure;BME280_temperature;BME280_humidity;BME280_pressure;Samples;Min_cycle;Max_cycle;Signal;HPM_P1;HPM_P2
2023/08/18 00:01:38;;;;;;;4.03;2.58;;;;;;;;;;5024315;28;20132;-77
2023/08/18 00:04:04;;;;;;;4.32;3.17;;;;;;;;;;5043420;28;20048;-77
2023/08/18 00:06:29;;;;;;;7.13;2.70;;;;;;;;;;5041592;28;20045;-78
2023/08/18 00:08:55;;;;;;;4.13;2.45;;;;;;;;;;5040250;28;20446;-77
2023/08/18 00:11:20;;;;;;;4.07;2.72;;;;;;;;;;5041469;28;20061;-77
2023/08/18 00:13:46;;;;;;;5.40;2.65;;;;;;;;;;5041545;28;20107;-76
2023/08/18 00:16:12;;;;;;;4.18;2.40;;;;;;;;;;5041201;28;20593;-77
2023/08/18 00:18:38;;;;;;;6.68;3.10;;;;;;;;;;5043582;28;20063;-76
2023/08/18 00:21:03;;;;;;;6.18;2.63;;;;;;;;;;5040133;28;20053;-78
2023/08/18 00:23:28;;;;;;;5.50;2.63;;;;;;;;;;5040919;28;20048;-77
2023/08/18 00:25:54;;;;;;;6.93;2.83;;;;;;;;;;5041308;28;20063;-78
2023/08/18 00:28:19;;;;;;;5.45;2.42;;;;;;;;;;5040740;28;20164;-78
2023/08/18 00:30:45;;;;;;;4.60;2.70;;;;;;;;;;5022413;28;20049;-77
2023/08/18 00:33:11;;;;;;;4.10;2.85;;;;;;;;;;5039609;28;20064;-78
2023/08/18 00:35:36;;;;;;;5.00;2.45;;;;;;;;;;5040837;28;20492;-77
2023/08/18 00:38:02;;;;;;;3.63;2.60;;;;;;;;;;5022419;28;20056;-77
2023/08/18 00:40:29;;;;;;;3.30;3.00;;;;;;;;;;5023370;28;20045;-77
2023/08/18 00:42:54;;;;;;;2.90;2.60;;;;;;;;;;5040176;28;20048;-77
2023/08/18 00:45:21;;;;;;;3.17;2.88;;;;;;;;;;5023706;28;20052;-76
2023/08/18 00:47:47;;;;;;;3.85;2.75;;;;;;;;;;5023335;28;20049;-78
2023/08/18 00:50:14;;;;;;;4.63;2.70;;;;;;;;;;5023981;28;20506;-78
2023/08/18 00:52:42;;;;;;;3.22;2.78;;;;;;;;;;5023185;28;20572;-77
2023/08/18 00:55:10;;;;;;;3.58;2.78;;;;;;;;;;5009227;28;20080;-77
2023/08/18 00:57:37;;;;;;;5.90;3.22;;;;;;;;;;5028703;28;20199;-78
2023/08/18 01:00:04;;;;;;;5.20;3.25;;;;;;;;;;5028122;28;20501;-77
2023/08/18 01:02:29;;;;;;;4.63;2.83;;;;;;;;;;5028529;28;20083;-78
2023/08/18 01:05:00;;;;;;;5.18;2.85;;;;;;;;;;5046203;28;20049;-77
2023/08/18 01:07:26;;;;;;;3.35;3.00;;;;;;;;;;5046704;28;20123;-77
2023/08/18 01:09:53;;;;;;;6.60;3.28;;;;;;;;;;5027351;28;20448;-76
2023/08/18 01:12:44;;;;;;;4.18;3.08;;;;;;;;;;5047016;28;20053;-78
2023/08/18 01:15:15;;;;;;;4.85;3.03;;;;;;;;;;5025998;28;20505;-76
2023/08/18 01:17:55;;;;;;;4.75;2.90;;;;;;;;;;5045124;28;20053;-77
2023/08/18 01:20:22;;;;;;;4.93;3.10;;;;;;;;;;5026784;28;20053;-77
2023/08/18 01:22:56;;;;;;;3.58;3.15;;;;;;;;;;5044994;28;20393;-76
2023/08/18 01:25:22;;;;;;;7.30;3.40;;;;;;;;;;5029014;28;20051;-77
2023/08/18 01:27:47;;;;;;;4.93;3.25;;;;;;;;;;5011832;28;20112;-77
2023/08/18 01:30:14;;;;;;;4.20;2.95;;;;;;;;;;5046385;28;20069;-77
2023/08/18 01:32:48;;;;;;;2.92;2.70;;;;;;;;;;5026320;28;20107;-75
2023/08/18 01:35:14;;;;;;;3.30;3.00;;;;;;;;;;5023777;28;20400;-77
2023/08/18 01:37:42;;;;;;;8.00;3.17;;;;;;;;;;5020719;28;20041;-77
2023/08/18 01:40:11;;;;;;;2.97;2.58;;;;;;;;;;5007262;28;20063;-76
2023/08/18 01:42:37;;;;;;;6.85;3.10;;;;;;;;;;5024149;28;20053;-77
2023/08/18 01:45:03;;;;;;;5.53;3.15;;;;;;;;;;5007110;28;20143;-76
2023/08/18 01:47:29;;;;;;;9.40;3.28;;;;;;;;;;5041098;28;20083;-75
2023/08/18 01:49:55;;;;;;;7.97;3.28;;;;;;;;;;5023746;28;20398;-75
2023/08/18 01:52:21;;;;;;;3.95;3.35;;;;;;;;;;5024030;28;20160;-74
2023/08/18 01:54:46;;;;;;;5.95;2.78;;;;;;;;;;5023583;28;20576;-75
2023/08/18 01:57:12;;;;;;;9.95;3.10;;;;;;;;;;5041676;28;20041;-76
2023/08/18 01:59:37;;;;;;;3.20;2.90;;;;;;;;;;5022959;28;20084;-75
2023/08/18 02:02:03;;;;;;;3.80;3.00;;;;;;;;;;5023437;28;20041;-74
2023/08/18 02:04:28;;;;;;;3.67;3.10;;;;;;;;;;5023947;28;20122;-75
2023/08/18 02:06:54;;;;;;;6.55;3.63;;;;;;;;;;5039859;28;20048;-74
2023/08/18 02:09:21;;;;;;;4.13;3.03;;;;;;;;;;5023369;28;20049;-75
2023/08/18 02:11:46;;;;;;;4.47;2.92;;;;;;;;;;5023347;28;20659;-76
2023/08/18 02:14:11;;;;;;;3.47;3.00;;;;;;;;;;5023852;28;20045;-76
2023/08/18 02:16:37;;;;;;;4.72;2.85;;;;;;;;;;5023330;28;20056;-76
2023/08/18 02:19:03;;;;;;;4.03;3.03;;;;;;;;;;5023371;28;20079;-76
2023/08/18 02:21:30;;;;;;;2.85;2.50;;;;;;;;;;5040235;28;20131;-76
2023/08/18 02:23:56;;;;;;;3.78;2.80;;;;;;;;;;5040974;28;20520;-77
2023/08/18 02:26:21;;;;;;;2.65;2.45;;;;;;;;;;5023347;28;20041;-76
2023/08/18 02:28:47;;;;;;;3.60;2.63;;;;;;;;;;5040852;28;21133;-76
2023/08/18 02:31:12;;;;;;;5.22;2.95;;;;;;;;;;5040375;28;20079;-76
2023/08/18 02:33:37;;;;;;;3.67;2.85;;;;;;;;;;5023145;28;20040;-76
2023/08/18 02:36:04;;;;;;;6.97;2.60;;;;;;;;;;5041282;28;20049;-76
2023/08/18 02:38:30;;;;;;;3.13;2.75;;;;;;;;;;5023104;28;20082;-76
2023/08/18 02:40:56;;;;;;;2.95;2.65;;;;;;;;;;5040322;28;20076;-76
2023/08/18 02:43:23;;;;;;;5.63;3.05;;;;;;;;;;5022433;28;20065;-76
2023/08/18 02:45:48;;;;;;;4.00;3.28;;;;;;;;;;5022422;28;20128;-76
2023/08/18 02:48:15;;;;;;;4.07;3.22;;;;;;;;;;5023027;28;20669;-76
2023/08/18 02:50:41;;;;;;;3.92;2.90;;;;;;;;;;5040721;28;20421;-77
2023/08/18 02:53:06;;;;;;;4.85;2.97;;;;;;;;;;5021938;28;20048;-77
2023/08/18 02:55:34;;;;;;;3.70;2.90;;;;;;;;;;5022692;28;20127;-77
2023/08/18 02:58:01;;;;;;;4.82;3.10;;;;;;;;;;5045463;28;20048;-78
2023/08/18 03:00:26;;;;;;;3.20;2.90;;;;;;;;;;5045418;28;20080;-79
2023/08/18 03:02:52;;;;;;;4.78;3.42;;;;;;;;;;5026036;28;20080;-79
2023/08/18 03:05:18;;;;;;;4.78;3.50;;;;;;;;;;5044138;28;20081;-78
2023/08/18 03:07:43;;;;;;;4.03;3.20;;;;;;;;;;5045268;28;20076;-79
2023/08/18 03:10:09;;;;;;;6.72;3.22;;;;;;;;;;5027605;28;20049;-79
2023/08/18 03:12:35;;;;;;;4.28;3.88;;;;;;;;;;5045379;28;20056;-78
2023/08/18 03:15:01;;;;;;;4.30;3.40;;;;;;;;;;5026343;28;20045;-78
2023/08/18 03:17:26;;;;;;;5.40;3.42;;;;;;;;;;5025605;28;20076;-78
2023/08/18 03:19:52;;;;;;;4.05;3.40;;;;;;;;;;5028221;28;20036;-78
2023/08/18 03:22:18;;;;;;;4.35;3.45;;;;;;;;;;5045634;28;20774;-79
2023/08/18 03:24:44;;;;;;;4.55;3.50;;;;;;;;;;5046207;28;20081;-78
2023/08/18 03:27:09;;;;;;;4.95;3.38;;;;;;;;;;5042389;28;20452;-79
2023/08/18 03:29:35;;;;;;;3.97;3.08;;;;;;;;;;5045805;28;20622;-78
2023/08/18 03:32:01;;;;;;;3.08;2.78;;;;;;;;;;5026913;28;20087;-79
2023/08/18 03:34:26;;;;;;;3.45;2.80;;;;;;;;;;5026300;28;20052;-79
2023/08/18 03:36:52;;;;;;;5.22;3.10;;;;;;;;;;5043650;28;20056;-78
2023/08/18 03:39:17;;;;;;;3.80;3.10;;;;;;;;;;5024355;28;20049;-79
2023/08/18 03:41:42;;;;;;;4.15;3.30;;;;;;;;;;5044483;28;20065;-79
2023/08/18 03:44:08;;;;;;;3.17;2.75;;;;;;;;;;5027113;28;20130;-79
2023/08/18 03:46:33;;;;;;;5.25;3.25;;;;;;;;;;5041711;28;20218;-79
2023/08/18 03:49:00;;;;;;;2.90;2.67;;;;;;;;;;5042323;28;20045;-79
2023/08/18 03:51:26;;;;;;;4.22;2.88;;;;;;;;;;5044183;28;20063;-79
2023/08/18 03:53:53;;;;;;;4.82;2.97;;;;;;;;;;5026448;28;20077;-80
2023/08/18 03:56:18;;;;;;;3.33;2.78;;;;;;;;;;5009277;28;20046;-77
2023/08/18 03:58:44;;;;;;;3.67;2.60;;;;;;;;;;5039828;28;20033;-77
2023/08/18 04:01:09;;;;;;;3.95;2.90;;;;;;;;;;5019386;28;20055;-77
2023/08/18 04:03:38;;;;;;;3.47;2.75;;;;;;;;;;5021678;28;20122;-78
2023/08/18 04:06:04;;;;;;;3.50;2.63;;;;;;;;;;5021755;28;20051;-78
2023/08/18 04:08:34;;;;;;;4.80;2.83;;;;;;;;;;5022123;28;20050;-77
2023/08/18 04:11:00;;;;;;;3.85;2.60;;;;;;;;;;5037703;28;20072;-77
2023/08/18 04:13:25;;;;;;;4.30;2.67;;;;;;;;;;5022832;28;20883;-76
2023/08/18 04:15:51;;;;;;;6.47;2.80;;;;;;;;;;5007463;28;20156;-76
2023/08/18 04:18:16;;;;;;;7.75;3.15;;;;;;;;;;5022045;28;20178;-76
2023/08/18 04:20:42;;;;;;;3.60;2.67;;;;;;;;;;5021570;28;20041;-77
2023/08/18 04:23:07;;;;;;;3.55;2.70;;;;;;;;;;5020206;28;20060;-76
2023/08/18 04:25:33;;;;;;;5.43;2.50;;;;;;;;;;5043003;28;20041;-77
2023/08/18 04:27:58;;;;;;;2.95;2.72;;;;;;;;;;5023472;28;20073;-77
2023/08/18 04:30:24;;;;;;;2.95;2.42;;;;;;;;;;5020593;28;20049;-77
2023/08/18 04:32:50;;;;;;;4.00;2.85;;;;;;;;;;5019886;28;20068;-77
2023/08/18 04:35:16;;;;;;;4.70;2.70;;;;;;;;;;5020744;28;20141;-76
2023/08/18 04:37:43;;;;;;;3.67;3.00;;;;;;;;;;5020533;28;20036;-77
2023/08/18 04:40:09;;;;;;;3.13;2.58;;;;;;;;;;5022017;28;20060;-77
2023/08/18 04:42:35;;;;;;;4.32;2.60;;;;;;;;;;5020813;28;20525;-76
2023/08/18 04:45:01;;;;;;;5.10;2.67;;;;;;;;;;5003924;28;20056;-76
2023/08/18 04:47:27;;;;;;;3.55;2.33;;;;;;;;;;5020988;28;20049;-76
2023/08/18 04:49:54;;;;;;;2.95;2.38;;;;;;;;;;5020879;28;20079;-76
2023/08/18 04:52:19;;;;;;;2.13;1.92;;;;;;;;;;5021206;28;20141;-77
2023/08/18 04:54:45;;;;;;;3.78;2.08;;;;;;;;;;5020494;28;20048;-76
2023/08/18 04:57:11;;;;;;;2.05;1.88;;;;;;;;;;5038102;28;20087;-76
2023/08/18 04:59:37;;;;;;;2.05;1.83;;;;;;;;;;5021093;28;20064;-76
2023/08/18 05:02:04;;;;;;;2.47;2.28;;;;;;;;;;5020598;28;20060;-76
2023/08/18 05:04:29;;;;;;;2.83;1.77;;;;;;;;;;5020649;28;20105;-76
2023/08/18 05:06:55;;;;;;;3.22;2.20;;;;;;;;;;5019263;28;20140;-76
2023/08/18 05:09:20;;;;;;;4.20;2.10;;;;;;;;;;5021281;28;20049;-76
2023/08/18 05:11:46;;;;;;;2.20;2.00;;;;;;;;;;5020323;28;20044;-76
2023/08/18 05:14:12;;;;;;;5.35;2.10;;;;;;;;;;5039301;28;20061;-76
2023/08/18 05:16:37;;;;;;;3.75;2.10;;;;;;;;;;5038130;28;20485;-76
2023/08/18 05:19:03;;;;;;;2.13;2.00;;;;;;;;;;5038188;28;20167;-77
2023/08/18 05:21:28;;;;;;;2.65;2.03;;;;;;;;;;5038853;28;20049;-75
2023/08/18 05:23:54;;;;;;;3.15;2.00;;;;;;;;;;5038693;28;20055;-75
2023/08/18 05:26:19;;;;;;;2.33;1.85;;;;;;;;;;5038418;28;20075;-76
2023/08/18 05:28:47;;;;;;;2.30;1.85;;;;;;;;;;5037277;28;20041;-76
2023/08/18 05:31:12;;;;;;;2.95;1.80;;;;;;;;;;5018243;28;20060;-77
2023/08/18 05:33:38;;;;;;;2.17;1.65;;;;;;;;;;5038167;28;20053;-76
2023/08/18 05:36:05;;;;;;;1.50;1.40;;;;;;;;;;5038169;28;20484;-77
2023/08/18 05:38:31;;;;;;;2.53;1.75;;;;;;;;;;5019371;28;20327;-77
2023/08/18 05:41:06;;;;;;;2.78;1.48;;;;;;;;;;5038450;28;20571;-77
2023/08/18 05:43:34;;;;;;;2.25;1.45;;;;;;;;;;5035936;28;20080;-76
2023/08/18 05:45:59;;;;;;;2.47;1.88;;;;;;;;;;5040276;28;20048;-75
2023/08/18 05:48:25;;;;;;;3.65;2.08;;;;;;;;;;5041432;28;20075;-76
2023/08/18 05:50:50;;;;;;;2.08;1.80;;;;;;;;;;5039748;28;20224;-75
2023/08/18 05:53:15;;;;;;;2.42;1.88;;;;;;;;;;5041394;28;20068;-75
2023/08/18 05:55:41;;;;;;;2.75;1.52;;;;;;;;;;5041174;28;20842;-75
2023/08/18 05:58:07;;;;;;;2.58;1.65;;;;;;;;;;5041362;28;20063;-76
2023/08/18 06:00:33;;;;;;;1.70;1.50;;;;;;;;;;5040596;28;20045;-76
2023/08/18 06:02:58;;;;;;;1.67;1.40;;;;;;;;;;5040523;28;21129;-76
2023/08/18 06:05:26;;;;;;;1.80;1.70;;;;;;;;;;5023176;28;20037;-75
2023/08/18 06:07:52;;;;;;;2.40;2.17;;;;;;;;;;5040472;28;20051;-74
2023/08/18 06:10:17;;;;;;;2.65;1.67;;;;;;;;;;5042044;28;20045;-74
2023/08/18 06:12:43;;;;;;;1.88;1.48;;;;;;;;;;5039387;28;20067;-75
2023/08/18 06:15:09;;;;;;;1.60;1.40;;;;;;;;;;5039668;28;20045;-73
2023/08/18 06:17:35;;;;;;;1.83;1.50;;;;;;;;;;5023703;28;20052;-73
2023/08/18 06:20:00;;;;;;;2.00;1.60;;;;;;;;;;5041724;28;20040;-73
2023/08/18 06:22:26;;;;;;;2.30;1.50;;;;;;;;;;5041020;28;20475;-73
2023/08/18 06:24:52;;;;;;;2.38;1.60;;;;;;;;;;5040720;28;20072;-73
2023/08/18 06:27:17;;;;;;;2.17;1.58;;;;;;;;;;5041251;28;20048;-73
2023/08/18 06:29:43;;;;;;;1.90;1.80;;;;;;;;;;5023278;28;20057;-75
2023/08/18 06:32:08;;;;;;;2.08;1.70;;;;;;;;;;5040985;28;20080;-75
2023/08/18 06:34:34;;;;;;;2.22;1.70;;;;;;;;;;5040830;28;20044;-73
2023/08/18 06:37:00;;;;;;;1.50;1.40;;;;;;;;;;5039764;28;20057;-71
2023/08/18 06:39:25;;;;;;;2.50;1.70;;;;;;;;;;5041329;28;20056;-71
2023/08/18 06:41:50;;;;;;;2.10;1.40;;;;;;;;;;5040910;28;20106;-75
2023/08/18 06:44:17;;;;;;;3.20;1.50;;;;;;;;;;5022781;28;20037;-74
2023/08/18 06:46:43;;;;;;;1.83;1.70;;;;;;;;;;5022627;28;20044;-75
2023/08/18 06:49:08;;;;;;;1.63;1.50;;;;;;;;;;5040261;28;20056;-75
2023/08/18 06:51:34;;;;;;;1.90;1.60;;;;;;;;;;5040449;28;20091;-76
2023/08/18 06:53:59;;;;;;;1.65;1.55;;;;;;;;;;5040019;28;20049;-75
2023/08/18 06:56:24;;;;;;;2.50;1.55;;;;;;;;;;5040215;28;20576;-76
2023/08/18 06:58:50;;;;;;;3.00;1.80;;;;;;;;;;5039738;28;20099;-73
2023/08/18 07:01:15;;;;;;;2.92;1.73;;;;;;;;;;5040956;28;20033;-76
2023/08/18 07:03:41;;;;;;;2.80;1.90;;;;;;;;;;5040574;28;20123;-76
2023/08/18 07:06:08;;;;;;;3.25;1.70;;;;;;;;;;5039176;28;20545;-74
2023/08/18 07:08:34;;;;;;;3.10;1.80;;;;;;;;;;5021689;28;20064;-75
2023/08/18 07:11:00;;;;;;;1.88;1.70;;;;;;;;;;5027030;28;20152;-74
2023/08/18 07:13:26;;;;;;;1.60;1.50;;;;;;;;;;5031517;28;21349;-72
2023/08/18 07:15:52;;;;;;;2.80;1.70;;;;;;;;;;5036263;28;20040;-73
2023/08/18 07:18:18;;;;;;;2.80;1.90;;;;;;;;;;5019119;28;20052;-72
2023/08/18 07:20:45;;;;;;;2.13;1.73;;;;;;;;;;5035198;28;20041;-74
2023/08/18 07:23:11;;;;;;;1.70;1.50;;;;;;;;;;5037743;28;20052;-74
2023/08/18 07:25:40;;;;;;;2.75;1.63;;;;;;;;;;5037119;28;20052;-76
2023/08/18 07:28:06;;;;;;;2.55;1.60;;;;;;;;;;5020065;28;20151;-73
2023/08/18 07:30:32;;;;;;;2.28;2.03;;;;;;;;;;5037672;28;20128;-74
2023/08/18 07:32:58;;;;;;;2.92;1.88;;;;;;;;;;5035938;28;20552;-71
2023/08/18 07:35:24;;;;;;;1.80;1.70;;;;;;;;;;5037898;28;20067;-73
2023/08/18 07:37:50;;;;;;;2.78;1.90;;;;;;;;;;5036402;28;20049;-72
2023/08/18 07:40:16;;;;;;;3.05;2.15;;;;;;;;;;5036468;28;20066;-73
2023/08/18 07:42:45;;;;;;;3.55;1.80;;;;;;;;;;5017079;28;20041;-75
2023/08/18 07:45:20;;;;;;;4.82;1.80;;;;;;;;;;5018815;28;20140;-76
2023/08/18 07:47:57;;;;;;;2.63;1.80;;;;;;;;;;5036396;28;20044;-74
2023/08/18 07:50:29;;;;;;;3.05;1.60;;;;;;;;;;4997485;28;20053;-75
2023/08/18 07:52:59;;;;;;;1.98;1.70;;;;;;;;;;4987509;28;20053;-75
2023/08/18 07:55:34;;;;;;;4.53;1.80;;;;;;;;;;4970559;28;20074;-75
2023/08/18 07:58:13;;;;;;;2.33;1.52;;;;;;;;;;4960407;28;20069;-74
2023/08/18 08:00:47;;;;;;;2.50;1.90;;;;;;;;;;4971342;28;20050;-75
2023/08/18 08:03:21;;;;;;;2.25;2.05;;;;;;;;;;4978403;28;20060;-74
2023/08/18 08:05:47;;;;;;;2.28;1.88;;;;;;;;;;4977121;28;20042;-75
2023/08/18 08:08:12;;;;;;;2.38;2.17;;;;;;;;;;4987510;28;20140;-74
2023/08/18 08:10:38;;;;;;;2.10;1.90;;;;;;;;;;4974629;28;20069;-77
2023/08/18 08:13:04;;;;;;;2.22;2.00;;;;;;;;;;4982098;28;20042;-74
2023/08/18 08:15:30;;;;;;;2.53;1.83;;;;;;;;;;4978994;28;20104;-74
2023/08/18 08:17:56;;;;;;;2.90;1.77;;;;;;;;;;4990258;28;20082;-76
2023/08/18 08:20:21;;;;;;;3.28;2.00;;;;;;;;;;5038244;28;20048;-77
2023/08/18 08:22:49;;;;;;;2.13;1.63;;;;;;;;;;5037439;28;20051;-77
2023/08/18 08:25:15;;;;;;;3.22;1.83;;;;;;;;;;5035859;28;20049;-73
2023/08/18 08:27:41;;;;;;;2.67;1.80;;;;;;;;;;5035668;28;20056;-76
2023/08/18 08:30:10;;;;;;;5.10;2.00;;;;;;;;;;5033830;28;20505;-72
2023/08/18 08:32:36;;;;;;;1.83;1.73;;;;;;;;;;5037766;28;20128;-76
2023/08/18 08:35:02;;;;;;;2.30;2.10;;;;;;;;;;5037355;28;20145;-77
2023/08/18 08:37:28;;;;;;;6.18;2.58;;;;;;;;;;5018934;28;20052;-75
2023/08/18 08:39:53;;;;;;;2.42;2.22;;;;;;;;;;5037110;28;20049;-76
2023/08/18 08:42:19;;;;;;;1.80;1.70;;;;;;;;;;5036938;28;20088;-75
2023/08/18 08:44:44;;;;;;;2.03;1.90;;;;;;;;;;5019016;28;20640;-74
2023/08/18 08:47:10;;;;;;;2.42;1.98;;;;;;;;;;5035150;28;20053;-76
2023/08/18 08:49:38;;;;;;;3.45;2.60;;;;;;;;;;5037999;28;20036;-73
2023/08/18 08:52:07;;;;;;;3.00;2.10;;;;;;;;;;5036186;28;20057;-74
2023/08/18 08:54:36;;;;;;;3.05;2.42;;;;;;;;;;5037155;28;20064;-75
2023/08/18 08:57:04;;;;;;;2.55;2.10;;;;;;;;;;5033832;28;20044;-75
2023/08/18 08:59:30;;;;;;;4.82;2.50;;;;;;;;;;5036950;28;20049;-77
2023/08/18 09:01:55;;;;;;;2.55;2.30;;;;;;;;;;5037991;28;20923;-77
2023/08/18 09:04:22;;;;;;;2.95;2.03;;;;;;;;;;5021078;28;20052;-77
2023/08/18 09:06:48;;;;;;;3.38;2.33;;;;;;;;;;5037966;28;20464;-75
2023/08/18 09:09:14;;;;;;;3.13;2.17;;;;;;;;;;5037090;28;21260;-74
2023/08/18 09:11:45;;;;;;;2.45;1.88;;;;;;;;;;5037690;28;20060;-75
2023/08/18 09:14:12;;;;;;;2.20;2.00;;;;;;;;;;5037501;28;20047;-72
2023/08/18 09:16:38;;;;;;;2.35;2.10;;;;;;;;;;5038351;28;20633;-74
2023/08/18 09:19:04;;;;;;;2.50;2.17;;;;;;;;;;5038300;28;20501;-74
2023/08/18 09:21:32;;;;;;;1.70;1.55;;;;;;;;;;5041262;28;20420;-77
2023/08/18 09:23:58;;;;;;;2.30;1.92;;;;;;;;;;5040017;28;20489;-75
2023/08/18 09:26:24;;;;;;;1.77;1.67;;;;;;;;;;5040728;28;20049;-75
2023/08/18 09:28:50;;;;;;;4.15;1.80;;;;;;;;;;5041460;28;20082;-72
2023/08/18 09:31:15;;;;;;;3.30;2.10;;;;;;;;;;5038942;28;20970;-73
2023/08/18 09:33:41;;;;;;;3.38;2.08;;;;;;;;;;5040485;28;20087;-75
2023/08/18 09:36:11;;;;;;;5.93;1.80;;;;;;;;;;5039799;28;20059;-75
2023/08/18 09:38:41;;;;;;;2.13;1.80;;;;;;;;;;5040298;28;20049;-75
2023/08/18 09:41:08;;;;;;;3.83;2.17;;;;;;;;;;5020772;28;20517;-75
2023/08/18 09:43:34;;;;;;;3.05;1.90;;;;;;;;;;5041221;28;20064;-75
2023/08/18 09:46:03;;;;;;;2.53;1.92;;;;;;;;;;5040284;28;20048;-74
2023/08/18 09:48:34;;;;;;;2.15;1.73;;;;;;;;;;5041710;28;20049;-75
2023/08/18 09:50:59;;;;;;;;;;;;;;;;;;5038916;28;20053;-74
2023/08/18 09:53:31;;;;;;;3.25;2.17;;;;;;;;;;5040664;28;19920;-74
2023/08/18 09:56:03;;;;;;;;;;;;;;;;;;5041055;28;20056;-75
2023/08/18 09:59:03;;;;;;;2.70;2.33;;;;;;;;;;5039790;28;19925;-75
2023/08/18 10:01:30;;;;;;;3.80;2.20;;;;;;;;;;4990460;28;20882;-76
2023/08/18 10:03:58;;;;;;;2.53;2.25;;;;;;;;;;5023739;28;20063;-77
2023/08/18 10:06:24;;;;;;;2.42;2.22;;;;;;;;;;5041601;28;20102;-75
2023/08/18 10:08:51;;;;;;;2.67;2.28;;;;;;;;;;5042750;28;20044;-78
2023/08/18 10:11:17;;;;;;;2.50;1.75;;;;;;;;;;5022838;28;20596;-76
2023/08/18 10:13:42;;;;;;;3.17;1.88;;;;;;;;;;5041671;28;20049;-76
2023/08/18 10:16:09;;;;;;;3.80;1.60;;;;;;;;;;5041110;28;20083;-75
2023/08/18 10:18:34;;;;;;;3.20;1.30;;;;;;;;;;5041522;28;20041;-73
2023/08/18 10:21:00;;;;;;;1.60;1.50;;;;;;;;;;5040533;28;20485;-71
2023/08/18 10:23:29;;;;;;;7.00;1.75;;;;;;;;;;5042813;28;20052;-76
2023/08/18 10:25:56;;;;;;;1.80;1.55;;;;;;;;;;5008893;28;20405;-75
2023/08/18 10:28:28;;;;;;;2.72;1.80;;;;;;;;;;5040108;28;20068;-74
2023/08/18 10:31:04;;;;;;;1.60;1.50;;;;;;;;;;5040400;28;20049;-75
2023/08/18 10:33:38;;;;;;;3.45;2.00;;;;;;;;;;5039550;28;20075;-77
2023/08/18 10:36:04;;;;;;;1.90;1.55;;;;;;;;;;5022574;28;20044;-75
2023/08/18 10:38:30;;;;;;;3.17;1.45;;;;;;;;;;5039049;28;20048;-77
2023/08/18 10:40:56;;;;;;;1.95;1.75;;;;;;;;;;5037592;28;20076;-76
2023/08/18 10:43:26;;;;;;;2.33;1.70;;;;;;;;;;5037377;28;20037;-79
2023/08/18 10:46:00;;;;;;;3.78;1.70;;;;;;;;;;5038242;28;20124;-76
2023/08/18 10:48:32;;;;;;;1.90;1.70;;;;;;;;;;5039917;28;20124;-75
2023/08/18 10:50:58;;;;;;;2.50;1.50;;;;;;;;;;5039246;28;20049;-76
2023/08/18 10:53:24;;;;;;;1.83;1.70;;;;;;;;;;5022410;28;20051;-77
2023/08/18 10:55:53;;;;;;;1.67;1.55;;;;;;;;;;5023298;28;20056;-78
2023/08/18 10:58:19;;;;;;;2.47;1.60;;;;;;;;;;5022650;28;20102;-76
2023/08/18 11:00:45;;;;;;;1.75;1.65;;;;;;;;;;5040584;28;20041;-75
2023/08/18 11:03:12;;;;;;;2.40;1.63;;;;;;;;;;5038232;28;20053;-75
2023/08/18 11:05:39;;;;;;;1.65;1.55;;;;;;;;;;5039639;28;20156;-76
2023/08/18 11:08:09;;;;;;;1.63;1.42;;;;;;;;;;5039662;28;20371;-77
2023/08/18 11:10:37;;;;;;;2.45;1.40;;;;;;;;;;5040273;28;20037;-76
2023/08/18 11:13:03;;;;;;;1.30;1.17;;;;;;;;;;5036653;28;20140;-76
2023/08/18 11:15:29;;;;;;;1.80;1.42;;;;;;;;;;5017968;28;20068;-75
2023/08/18 11:17:55;;;;;;;1.67;1.58;;;;;;;;;;5036912;28;20509;-77
2023/08/18 11:20:22;;;;;;;1.50;1.40;;;;;;;;;;5038116;28;20056;-76
2023/08/18 11:22:51;;;;;;;1.77;1.52;;;;;;;;;;5037302;28;20063;-78
2023/08/18 11:25:17;;;;;;;2.25;2.05;;;;;;;;;;5038163;28;20049;-80
2023/08/18 11:27:44;;;;;;;2.42;1.60;;;;;;;;;;5036942;28;20203;-80
2023/08/18 11:30:14;;;;;;;3.85;1.70;;;;;;;;;;5022716;28;20041;-77
2023/08/18 11:32:40;;;;;;;4.82;2.10;;;;;;;;;;5040637;28;20057;-76
2023/08/18 11:35:08;;;;;;;1.50;1.30;;;;;;;;;;5038111;28;20113;-75
2023/08/18 11:37:44;;;;;;;1.35;1.25;;;;;;;;;;5039863;28;20083;-75
2023/08/18 11:40:12;;;;;;;1.65;1.55;;;;;;;;;;5005355;28;20049;-77
2023/08/18 11:42:48;;;;;;;1.20;1.20;;;;;;;;;;5038884;28;20119;-76
2023/08/18 11:45:16;;;;;;;1.98;1.33;;;;;;;;;;5038315;28;20043;-77
2023/08/18 11:47:42;;;;;;;1.58;1.40;;;;;;;;;;5020667;28;20455;-74
2023/08/18 11:50:08;;;;;;;2.45;1.50;;;;;;;;;;5035791;28;20048;-75
2023/08/18 11:52:41;;;;;;;1.60;1.50;;;;;;;;;;5037996;28;20452;-75
2023/08/18 11:55:08;;;;;;;2.30;1.55;;;;;;;;;;5037165;28;20052;-73
2023/08/18 11:57:34;;;;;;;3.67;1.60;;;;;;;;;;5038567;28;20063;-77
2023/08/18 11:59:59;;;;;;;1.55;1.45;;;;;;;;;;5037816;28;20497;-77
2023/08/18 12:02:26;;;;;;;2.40;1.33;;;;;;;;;;5037242;28;20057;-78
2023/08/18 12:04:52;;;;;;;1.33;1.23;;;;;;;;;;5036232;28;20135;-77
2023/08/18 12:07:18;;;;;;;1.65;1.30;;;;;;;;;;5037908;28;20493;-75
2023/08/18 12:09:45;;;;;;;4.07;1.30;;;;;;;;;;5038236;28;20114;-76
2023/08/18 12:12:14;;;;;;;1.30;1.13;;;;;;;;;;5037784;28;20126;-76
2023/08/18 12:14:40;;;;;;;1.80;1.23;;;;;;;;;;5038108;28;20049;-76
2023/08/18 12:17:05;;;;;;;1.60;1.42;;;;;;;;;;5036425;28;20056;-77
2023/08/18 12:19:31;;;;;;;2.35;1.83;;;;;;;;;;5038410;28;20048;-78
2023/08/18 12:21:56;;;;;;;4.00;1.38;;;;;;;;;;5036903;28;20374;-77
2023/08/18 12:24:22;;;;;;;2.83;1.55;;;;;;;;;;5036638;28;20060;-77
2023/08/18 12:26:48;;;;;;;2.35;1.65;;;;;;;;;;5037716;28;20142;-76
2023/08/18 12:29:14;;;;;;;1.90;1.63;;;;;;;;;;5016253;28;20452;-75
2023/08/18 12:31:39;;;;;;;1.55;1.33;;;;;;;;;;5037893;28;20057;-73
2023/08/18 12:34:07;;;;;;;3.75;1.48;;;;;;;;;;5040327;28;20056;-77
2023/08/18 12:36:33;;;;;;;2.22;1.50;;;;;;;;;;5040647;28;20041;-76
2023/08/18 12:38:58;;;;;;;1.48;1.38;;;;;;;;;;5035631;28;20057;-75
2023/08/18 12:41:27;;;;;;;2.38;1.55;;;;;;;;;;5037355;28;20056;-75
2023/08/18 12:43:52;;;;;;;2.28;1.40;;;;;;;;;;5019080;28;20037;-73
2023/08/18 12:46:19;;;;;;;1.50;1.40;;;;;;;;;;5036394;28;20040;-72
2023/08/18 12:48:44;;;;;;;1.48;1.08;;;;;;;;;;5036513;28;20131;-76
2023/08/18 12:51:10;;;;;;;1.25;1.15;;;;;;;;;;5037956;28;20426;-74
2023/08/18 12:53:35;;;;;;;2.05;1.63;;;;;;;;;;5041511;28;20048;-72
2023/08/18 12:56:01;;;;;;;1.50;1.38;;;;;;;;;;5040761;28;20513;-76
2023/08/18 12:58:26;;;;;;;3.40;2.25;;;;;;;;;;5043445;28;20057;-74
2023/08/18 13:00:52;;;;;;;2.40;1.30;;;;;;;;;;5041986;28;20178;-75
2023/08/18 13:03:18;;;;;;;2.47;1.38;;;;;;;;;;5021017;28;20059;-74
2023/08/18 13:05:43;;;;;;;1.40;1.30;;;;;;;;;;5040522;28;20572;-77
2023/08/18 13:08:09;;;;;;;1.15;1.02;;;;;;;;;;5039981;28;20195;-72
2023/08/18 13:10:34;;;;;;;1.40;1.30;;;;;;;;;;5038772;28;20056;-75
2023/08/18 13:13:00;;;;;;;1.80;1.17;;;;;;;;;;5038114;28;20094;-73
2023/08/18 13:15:26;;;;;;;1.33;1.23;;;;;;;;;;5006571;28;20048;-72
2023/08/18 13:17:52;;;;;;;1.23;1.13;;;;;;;;;;5041992;28;20048;-74
2023/08/18 13:20:18;;;;;;;2.65;1.55;;;;;;;;;;5040362;28;20761;-74
2023/08/18 13:22:44;;;;;;;1.30;1.20;;;;;;;;;;5042751;28;20071;-75
2023/08/18 13:25:12;;;;;;;3.03;1.13;;;;;;;;;;5022565;28;20977;-75
2023/08/18 13:27:42;;;;;;;2.70;1.30;;;;;;;;;;5021678;28;20060;-73
2023/08/18 13:30:09;;;;;;;1.38;1.20;;;;;;;;;;5004320;28;20152;-77
2023/08/18 13:32:38;;;;;;;1.45;1.35;;;;;;;;;;5030333;28;20063;-75
2023/08/18 13:35:04;;;;;;;3.95;1.27;;;;;;;;;;5038654;28;20052;-76
2023/08/18 13:37:30;;;;;;;1.42;1.30;;;;;;;;;;5023529;28;20416;-76
2023/08/18 13:39:55;;;;;;;1.52;1.42;;;;;;;;;;5042162;28;20532;-75
2023/08/18 13:42:22;;;;;;;1.52;1.42;;;;;;;;;;5023161;28;20048;-73
2023/08/18 13:44:47;;;;;;;2.25;1.48;;;;;;;;;;5041947;28;20094;-74
2023/08/18 13:47:13;;;;;;;1.55;1.30;;;;;;;;;;5040148;28;20049;-75
2023/08/18 13:49:38;;;;;;;2.15;1.95;;;;;;;;;;5042474;28;20060;-77
2023/08/18 13:52:04;;;;;;;1.75;1.23;;;;;;;;;;5021424;28;20041;-75
2023/08/18 13:54:30;;;;;;;1.45;1.35;;;;;;;;;;5040600;28;20444;-77
2023/08/18 13:56:55;;;;;;;1.25;1.15;;;;;;;;;;5042047;28;20052;-77
2023/08/18 13:59:21;;;;;;;2.38;1.50;;;;;;;;;;5042046;28;20053;-76
2023/08/18 14:01:46;;;;;;;2.05;1.35;;;;;;;;;;5039814;28;20049;-75
2023/08/18 14:04:11;;;;;;;1.52;1.35;;;;;;;;;;5022349;28;20048;-76
2023/08/18 14:06:37;;;;;;;2.95;1.50;;;;;;;;;;5040459;28;20072;-74
2023/08/18 14:09:03;;;;;;;3.88;1.60;;;;;;;;;;5040970;28;20049;-74
2023/08/18 14:11:29;;;;;;;1.90;1.48;;;;;;;;;;5041085;28;20057;-73
2023/08/18 14:13:54;;;;;;;3.47;1.50;;;;;;;;;;5041559;28;20053;-73
2023/08/18 14:16:20;;;;;;;1.70;1.30;;;;;;;;;;5040710;28;20060;-73
2023/08/18 14:18:45;;;;;;;1.50;1.40;;;;;;;;;;5042047;28;20052;-78
2023/08/18 14:21:11;;;;;;;3.38;1.67;;;;;;;;;;5041054;28;20497;-75
2023/08/18 14:23:37;;;;;;;1.40;1.25;;;;;;;;;;5023772;28;20041;-75
2023/08/18 14:26:03;;;;;;;5.05;1.30;;;;;;;;;;5040254;28;20049;-75
2023/08/18 14:28:29;;;;;;;1.50;1.40;;;;;;;;;;5040828;28;20078;-73
2023/08/18 14:30:54;;;;;;;1.20;1.10;;;;;;;;;;5039867;28;20045;-75
2023/08/18 14:33:19;;;;;;;2.53;1.40;;;;;;;;;;5040594;28;20053;-75
2023/08/18 14:35:45;;;;;;;2.30;1.23;;;;;;;;;;5040729;28;20076;-77
2023/08/18 14:38:10;;;;;;;2.50;1.30;;;;;;;;;;5040445;28;20198;-74
2023/08/18 14:40:39;;;;;;;1.33;1.23;;;;;;;;;;5040545;28;20049;-76